sensor_id;sensor_type;location;lat;lon;timestamp;temperature;humidity
71175;DHT22;58876;51.994;4.472;2023-09-12T00:02:04;20.69;83.45
71175;DHT22;58876;51.994;4.472;2023-09-12T00:04:30;20.62;83.20
71175;DHT22;58876;51.994;4.472;2023-09-12T00:06:55;20.66;83.27
71175;DHT22;58876;51.994;4.472;2023-09-12T00:09:21;20.53;84.00
71175;DHT22;58876;51.994;4.472;2023-09-12T00:11:46;20.51;84.07
71175;DHT22;58876;51.994;4.472;2023-09-12T00:14:15;20.53;84.28
71175;DHT22;58876;51.994;4.472;2023-09-12T00:16:42;20.44;84.25
71175;DHT22;58876;51.994;4.472;2023-09-12T00:19:07;20.47;84.45
71175;DHT22;58876;51.994;4.472;2023-09-12T00:21:33;20.49;84.45
71175;DHT22;58876;51.994;4.472;2023-09-12T00:23:58;20.48;84.40
71175;DHT22;58876;51.994;4.472;2023-09-12T00:26:24;20.47;84.76
71175;DHT22;58876;51.994;4.472;2023-09-12T00:28:49;20.48;84.77
71175;DHT22;58876;51.994;4.472;2023-09-12T00:31:15;20.45;84.70
71175;DHT22;58876;51.994;4.472;2023-09-12T00:33:40;20.49;84.62
71175;DHT22;58876;51.994;4.472;2023-09-12T00:36:06;20.47;84.40
71175;DHT22;58876;51.994;4.472;2023-09-12T00:38:31;20.45;84.59
71175;DHT22;58876;51.994;4.472;2023-09-12T00:40:57;20.44;84.79
71175;DHT22;58876;51.994;4.472;2023-09-12T00:43:22;20.41;84.68
71175;DHT22;58876;51.994;4.472;2023-09-12T00:45:48;20.35;84.68
71175;DHT22;58876;51.994;4.472;2023-09-12T00:48:15;20.27;85.05
71175;DHT22;58876;51.994;4.472;2023-09-12T00:50:43;20.21;85.01
71175;DHT22;58876;51.994;4.472;2023-09-12T00:53:09;20.17;85.18
71175;DHT22;58876;51.994;4.472;2023-09-12T00:55:37;20.08;85.42
71175;DHT22;58876;51.994;4.472;2023-09-12T00:58:06;19.93;85.77
71175;DHT22;58876;51.994;4.472;2023-09-12T01:00:33;19.93;85.93
71175;DHT22;58876;51.994;4.472;2023-09-12T01:02:58;19.86;86.33
71175;DHT22;58876;51.994;4.472;2023-09-12T01:05:24;19.88;86.19
71175;DHT22;58876;51.994;4.472;2023-09-12T01:07:50;19.83;86.15
71175;DHT22;58876;51.994;4.472;2023-09-12T01:10:16;19.76;86.36
71175;DHT22;58876;51.994;4.472;2023-09-12T01:12:41;19.80;85.97
71175;DHT22;58876;51.994;4.472;2023-09-12T01:15:08;19.79;85.77
71175;DHT22;58876;51.994;4.472;2023-09-12T01:17:41;19.81;85.53
71175;DHT22;58876;51.994;4.472;2023-09-12T01:20:11;19.77;85.54
71175;DHT22;58876;51.994;4.472;2023-09-12T01:26:02;19.76;85.66
71175;DHT22;58876;51.994;4.472;2023-09-12T01:28:30;19.73;86.03
71175;DHT22;58876;51.994;4.472;2023-09-12T01:31:01;19.73;85.86
71175;DHT22;58876;51.994;4.472;2023-09-12T01:33:28;19.79;85.99
71175;DHT22;58876;51.994;4.472;2023-09-12T01:35:54;19.83;85.79
71175;DHT22;58876;51.994;4.472;2023-09-12T01:38:21;19.90;85.73
71175;DHT22;58876;51.994;4.472;2023-09-12T01:40:49;19.91;85.20
71175;DHT22;58876;51.994;4.472;2023-09-12T01:43:18;19.98;85.03
71175;DHT22;58876;51.994;4.472;2023-09-12T01:45:55;19.97;84.82
71175;DHT22;58876;51.994;4.472;2023-09-12T01:48:26;19.98;84.92
71175;DHT22;58876;51.994;4.472;2023-09-12T01:50:56;20.00;84.84
71175;DHT22;58876;51.994;4.472;2023-09-12T01:53:22;19.98;84.62
71175;DHT22;58876;51.994;4.472;2023-09-12T01:55:49;20.01;84.36
71175;DHT22;58876;51.994;4.472;2023-09-12T01:58:15;19.98;84.32
71175;DHT22;58876;51.994;4.472;2023-09-12T02:00:41;19.98;84.23
71175;DHT22;58876;51.994;4.472;2023-09-12T02:03:06;19.96;84.19
71175;DHT22;58876;51.994;4.472;2023-09-12T02:05:32;19.94;84.21
71175;DHT22;58876;51.994;4.472;2023-09-12T02:07:58;19.94;84.31
71175;DHT22;58876;51.994;4.472;2023-09-12T02:10:25;19.94;84.23
71175;DHT22;58876;51.994;4.472;2023-09-12T02:12:51;19.94;84.24
71175;DHT22;58876;51.994;4.472;2023-09-12T02:15:16;19.91;84.23
71175;DHT22;58876;51.994;4.472;2023-09-12T02:17:42;19.88;84.20
71175;DHT22;58876;51.994;4.472;2023-09-12T02:20:08;19.87;84.03
71175;DHT22;58876;51.994;4.472;2023-09-12T02:22:34;19.88;84.01
71175;DHT22;58876;51.994;4.472;2023-09-12T02:25:00;19.87;84.26
71175;DHT22;58876;51.994;4.472;2023-09-12T02:27:25;19.86;84.46
71175;DHT22;58876;51.994;4.472;2023-09-12T02:29:51;19.86;84.15
71175;DHT22;58876;51.994;4.472;2023-09-12T02:32:16;19.84;83.79
71175;DHT22;58876;51.994;4.472;2023-09-12T02:34:42;19.81;83.79
71175;DHT22;58876;51.994;4.472;2023-09-12T02:37:07;19.80;83.69
71175;DHT22;58876;51.994;4.472;2023-09-12T02:39:33;19.81;83.95
71175;DHT22;58876;51.994;4.472;2023-09-12T02:41:59;19.84;84.16
71175;DHT22;58876;51.994;4.472;2023-09-12T02:44:24;19.87;84.21
71175;DHT22;58876;51.994;4.472;2023-09-12T02:46:50;19.86;84.14
71175;DHT22;58876;51.994;4.472;2023-09-12T02:49:16;19.83;84.36
71175;DHT22;58876;51.994;4.472;2023-09-12T02:51:42;19.83;84.18
71175;DHT22;58876;51.994;4.472;2023-09-12T02:54:07;19.88;84.19
71175;DHT22;58876;51.994;4.472;2023-09-12T02:56:33;19.87;84.29
71175;DHT22;58876;51.994;4.472;2023-09-12T02:58:58;19.94;84.40
71175;DHT22;58876;51.994;4.472;2023-09-12T03:01:24;19.98;84.35
71175;DHT22;58876;51.994;4.472;2023-09-12T03:03:53;20.00;84.22
71175;DHT22;58876;51.994;4.472;2023-09-12T03:06:19;20.04;84.31
71175;DHT22;58876;51.994;4.472;2023-09-12T03:08:45;20.07;84.16
71175;DHT22;58876;51.994;4.472;2023-09-12T03:11:10;20.13;84.15
71175;DHT22;58876;51.994;4.472;2023-09-12T03:13:37;20.16;84.08
71175;DHT22;58876;51.994;4.472;2023-09-12T03:16:03;20.17;83.92
71175;DHT22;58876;51.994;4.472;2023-09-12T03:18:28;20.22;83.86
71175;DHT22;58876;51.994;4.472;2023-09-12T03:20:54;20.25;83.79
71175;DHT22;58876;51.994;4.472;2023-09-12T03:23:20;20.27;83.57
71175;DHT22;58876;51.994;4.472;2023-09-12T03:25:46;20.28;83.30
71175;DHT22;58876;51.994;4.472;2023-09-12T03:28:11;20.28;83.61
71175;DHT22;58876;51.994;4.472;2023-09-12T03:30:38;20.35;84.01
71175;DHT22;58876;51.994;4.472;2023-09-12T03:33:04;20.34;84.06
71175;DHT22;58876;51.994;4.472;2023-09-12T03:35:32;20.39;83.68
71175;DHT22;58876;51.994;4.472;2023-09-12T03:37:58;20.38;83.21
71175;DHT22;58876;51.994;4.472;2023-09-12T03:40:23;20.38;83.40
71175;DHT22;58876;51.994;4.472;2023-09-12T03:42:49;20.37;83.44
71175;DHT22;58876;51.994;4.472;2023-09-12T03:45:14;20.42;83.55
71175;DHT22;58876;51.994;4.472;2023-09-12T03:47:40;20.45;83.50
71175;DHT22;58876;51.994;4.472;2023-09-12T03:50:06;20.48;83.56
71175;DHT22;58876;51.994;4.472;2023-09-12T03:52:31;20.49;83.72
71175;DHT22;58876;51.994;4.472;2023-09-12T03:54:57;20.51;83.73
71175;DHT22;58876;51.994;4.472;2023-09-12T03:57:22;20.59;83.58
71175;DHT22;58876;51.994;4.472;2023-09-12T03:59:48;20.59;83.74
71175;DHT22;58876;51.994;4.472;2023-09-12T04:02:13;20.62;83.70
71175;DHT22;58876;51.994;4.472;2023-09-12T04:04:39;20.64;83.82
71175;DHT22;58876;51.994;4.472;2023-09-12T04:07:04;20.66;83.62
71175;DHT22;58876;51.994;4.472;2023-09-12T04:09:30;20.64;83.38
71175;DHT22;58876;51.994;4.472;2023-09-12T04:11:56;20.64;83.31
71175;DHT22;58876;51.994;4.472;2023-09-12T04:14:21;20.65;83.40
71175;DHT22;58876;51.994;4.472;2023-09-12T04:16:47;20.66;83.36
71175;DHT22;58876;51.994;4.472;2023-09-12T04:19:14;20.66;83.75
71175;DHT22;58876;51.994;4.472;2023-09-12T04:21:40;20.65;83.65
71175;DHT22;58876;51.994;4.472;2023-09-12T04:24:06;20.68;83.43
71175;DHT22;58876;51.994;4.472;2023-09-12T04:26:32;20.71;83.48
71175;DHT22;58876;51.994;4.472;2023-09-12T04:28:57;20.73;83.59
71175;DHT22;58876;51.994;4.472;2023-09-12T04:31:23;20.76;83.72
71175;DHT22;58876;51.994;4.472;2023-09-12T04:33:51;20.77;83.61
71175;DHT22;58876;51.994;4.472;2023-09-12T04:36:17;20.83;83.70
71175;DHT22;58876;51.994;4.472;2023-09-12T04:38:42;20.85;83.76
71175;DHT22;58876;51.994;4.472;2023-09-12T04:41:08;20.89;83.71
71175;DHT22;58876;51.994;4.472;2023-09-12T04:43:35;20.93;83.85
71175;DHT22;58876;51.994;4.472;2023-09-12T04:46:00;21.03;83.80
71175;DHT22;58876;51.994;4.472;2023-09-12T04:48:26;21.03;83.83
71175;DHT22;58876;51.994;4.472;2023-09-12T04:50:51;21.03;83.80
71175;DHT22;58876;51.994;4.472;2023-09-12T04:53:17;21.08;83.52
71175;DHT22;58876;51.994;4.472;2023-09-12T04:55:42;21.11;83.66
71175;DHT22;58876;51.994;4.472;2023-09-12T04:58:08;21.11;83.46
71175;DHT22;58876;51.994;4.472;2023-09-12T05:00:34;21.14;83.48
71175;DHT22;58876;51.994;4.472;2023-09-12T05:03:00;21.17;83.42
71175;DHT22;58876;51.994;4.472;2023-09-12T05:05:26;21.19;83.64
71175;DHT22;58876;51.994;4.472;2023-09-12T05:07:51;21.23;83.54
71175;DHT22;58876;51.994;4.472;2023-09-12T05:10:17;21.23;83.19
71175;DHT22;58876;51.994;4.472;2023-09-12T05:12:44;21.17;83.36
71175;DHT22;58876;51.994;4.472;2023-09-12T05:15:10;21.13;83.50
71175;DHT22;58876;51.994;4.472;2023-09-12T05:17:35;21.16;83.66
71175;DHT22;58876;51.994;4.472;2023-09-12T05:20:02;21.13;83.58
71175;DHT22;58876;51.994;4.472;2023-09-12T05:22:27;21.10;83.66
71175;DHT22;58876;51.994;4.472;2023-09-12T05:24:54;21.08;83.74
71175;DHT22;58876;51.994;4.472;2023-09-12T05:27:19;21.08;83.82
71175;DHT22;58876;51.994;4.472;2023-09-12T05:29:44;21.00;83.83
71175;DHT22;58876;51.994;4.472;2023-09-12T05:32:10;20.97;84.49
71175;DHT22;58876;51.994;4.472;2023-09-12T05:34:36;20.99;84.48
71175;DHT22;58876;51.994;4.472;2023-09-12T05:37:01;21.03;84.31
71175;DHT22;58876;51.994;4.472;2023-09-12T05:39:27;21.06;84.33
71175;DHT22;58876;51.994;4.472;2023-09-12T05:41:53;21.04;84.62
71175;DHT22;58876;51.994;4.472;2023-09-12T05:44:18;21.04;84.56
71175;DHT22;58876;51.994;4.472;2023-09-12T05:46:47;21.19;84.53
71175;DHT22;58876;51.994;4.472;2023-09-12T05:49:14;21.26;84.38
71175;DHT22;58876;51.994;4.472;2023-09-12T05:51:40;21.31;84.22
71175;DHT22;58876;51.994;4.472;2023-09-12T05:54:06;21.36;83.94
71175;DHT22;58876;51.994;4.472;2023-09-12T05:56:34;21.34;83.98
71175;DHT22;58876;51.994;4.472;2023-09-12T05:58:59;21.37;83.92
71175;DHT22;58876;51.994;4.472;2023-09-12T06:01:25;21.44;83.94
71175;DHT22;58876;51.994;4.472;2023-09-12T06:03:50;21.44;83.60
71175;DHT22;58876;51.994;4.472;2023-09-12T06:06:16;21.48;83.38
71175;DHT22;58876;51.994;4.472;2023-09-12T06:08:41;21.50;83.33
71175;DHT22;58876;51.994;4.472;2023-09-12T06:11:07;21.50;83.48
71175;DHT22;58876;51.994;4.472;2023-09-12T06:13:32;21.53;83.40
71175;DHT22;58876;51.994;4.472;2023-09-12T06:16:00;21.50;83.41
71175;DHT22;58876;51.994;4.472;2023-09-12T06:18:26;21.53;83.36
71175;DHT22;58876;51.994;4.472;2023-09-12T06:20:54;21.51;83.60
71175;DHT22;58876;51.994;4.472;2023-09-12T06:23:19;21.48;83.74
71175;DHT22;58876;51.994;4.472;2023-09-12T06:25:45;21.47;83.81
71175;DHT22;58876;51.994;4.472;2023-09-12T06:28:10;21.34;83.79
71175;DHT22;58876;51.994;4.472;2023-09-12T06:30:36;21.37;84.21
71175;DHT22;58876;51.994;4.472;2023-09-12T06:33:01;21.40;84.07
71175;DHT22;58876;51.994;4.472;2023-09-12T06:35:27;21.41;84.15
71175;DHT22;58876;51.994;4.472;2023-09-12T06:37:53;21.45;83.95
71175;DHT22;58876;51.994;4.472;2023-09-12T06:40:21;21.51;83.97
71175;DHT22;58876;51.994;4.472;2023-09-12T06:42:46;21.54;83.84
71175;DHT22;58876;51.994;4.472;2023-09-12T06:45:12;21.57;84.03
71175;DHT22;58876;51.994;4.472;2023-09-12T06:47:37;21.69;83.86
71175;DHT22;58876;51.994;4.472;2023-09-12T06:50:03;21.73;83.75
71175;DHT22;58876;51.994;4.472;2023-09-12T06:52:28;21.77;83.48
71175;DHT22;58876;51.994;4.472;2023-09-12T06:54:54;21.73;83.19
71175;DHT22;58876;51.994;4.472;2023-09-12T06:57:19;21.81;83.39
71175;DHT22;58876;51.994;4.472;2023-09-12T06:59:45;22.06;83.16
71175;DHT22;58876;51.994;4.472;2023-09-12T07:02:10;22.19;82.75
71175;DHT22;58876;51.994;4.472;2023-09-12T07:04:38;22.19;82.25
71175;DHT22;58876;51.994;4.472;2023-09-12T07:07:03;22.09;82.30
71175;DHT22;58876;51.994;4.472;2023-09-12T07:09:29;22.01;82.62
71175;DHT22;58876;51.994;4.472;2023-09-12T07:11:55;22.03;82.64
71175;DHT22;58876;51.994;4.472;2023-09-12T07:14:20;22.15;82.71
71175;DHT22;58876;51.994;4.472;2023-09-12T07:16:47;22.26;82.27
71175;DHT22;58876;51.994;4.472;2023-09-12T07:19:12;22.01;82.25
71175;DHT22;58876;51.994;4.472;2023-09-12T07:21:38;22.01;82.74
71175;DHT22;58876;51.994;4.472;2023-09-12T07:24:03;22.15;82.65
71175;DHT22;58876;51.994;4.472;2023-09-12T07:26:30;22.23;82.32
71175;DHT22;58876;51.994;4.472;2023-09-12T07:28:55;22.15;82.08
71175;DHT22;58876;51.994;4.472;2023-09-12T07:31:21;22.15;82.40
71175;DHT22;58876;51.994;4.472;2023-09-12T07:33:46;22.22;82.03
71175;DHT22;58876;51.994;4.472;2023-09-12T07:36:12;22.08;81.91
71175;DHT22;58876;51.994;4.472;2023-09-12T07:38:37;22.20;81.40
71175;DHT22;58876;51.994;4.472;2023-09-12T07:41:03;22.56;81.62
71175;DHT22;58876;51.994;4.472;2023-09-12T07:43:28;22.64;80.28
71175;DHT22;58876;51.994;4.472;2023-09-12T07:45:55;22.50;80.80
71175;DHT22;58876;51.994;4.472;2023-09-12T07:48:21;22.94;79.91
71175;DHT22;58876;51.994;4.472;2023-09-12T07:50:47;23.28;79.26
71175;DHT22;58876;51.994;4.472;2023-09-12T07:53:12;23.32;78.37
71175;DHT22;58876;51.994;4.472;2023-09-12T07:55:38;23.49;79.04
71175;DHT22;58876;51.994;4.472;2023-09-12T07:58:15;23.46;78.42
71175;DHT22;58876;51.994;4.472;2023-09-12T08:00:40;23.01;77.65
71175;DHT22;58876;51.994;4.472;2023-09-12T08:03:06;22.87;79.08
71175;DHT22;58876;51.994;4.472;2023-09-12T08:05:32;23.04;78.98
71175;DHT22;58876;51.994;4.472;2023-09-12T08:07:58;23.31;77.78
71175;DHT22;58876;51.994;4.472;2023-09-12T08:10:23;23.33;78.08
71175;DHT22;58876;51.994;4.472;2023-09-12T08:12:49;23.33;77.09
71175;DHT22;58876;51.994;4.472;2023-09-12T08:15:14;23.74;76.87
71175;DHT22;58876;51.994;4.472;2023-09-12T08:17:40;23.90;75.94
71175;DHT22;58876;51.994;4.472;2023-09-12T08:20:07;23.72;75.35
71175;DHT22;58876;51.994;4.472;2023-09-12T08:22:38;24.38;74.34
71175;DHT22;58876;51.994;4.472;2023-09-12T08:25:04;25.09;71.22
71175;DHT22;58876;51.994;4.472;2023-09-12T08:27:30;25.91;69.51
71175;DHT22;58876;51.994;4.472;2023-09-12T08:29:55;25.68;68.13
71175;DHT22;58876;51.994;4.472;2023-09-12T08:32:21;25.06;69.69
71175;DHT22;58876;51.994;4.472;2023-09-12T08:34:46;24.78;72.19
71175;DHT22;58876;51.994;4.472;2023-09-12T08:37:12;24.75;72.39
71175;DHT22;58876;51.994;4.472;2023-09-12T08:39:42;24.20;73.39
71175;DHT22;58876;51.994;4.472;2023-09-12T08:42:12;24.24;73.33
71175;DHT22;58876;51.994;4.472;2023-09-12T08:44:40;24.68;71.46
71175;DHT22;58876;51.994;4.472;2023-09-12T08:47:08;24.93;70.80
71175;DHT22;58876;51.994;4.472;2023-09-12T08:49:35;24.80;70.70
71175;DHT22;58876;51.994;4.472;2023-09-12T08:52:03;24.82;71.28
71175;DHT22;58876;51.994;4.472;2023-09-12T08:54:29;24.55;72.29
71175;DHT22;58876;51.994;4.472;2023-09-12T08:56:55;24.10;71.78
71175;DHT22;58876;51.994;4.472;2023-09-12T08:59:21;24.24;73.31
71175;DHT22;58876;51.994;4.472;2023-09-12T09:01:46;24.95;71.82
71175;DHT22;58876;51.994;4.472;2023-09-12T09:04:12;25.08;70.42
71175;DHT22;58876;51.994;4.472;2023-09-12T09:06:41;25.06;70.66
71175;DHT22;58876;51.994;4.472;2023-09-12T09:09:08;25.46;70.38
71175;DHT22;58876;51.994;4.472;2023-09-12T09:11:34;25.78;68.90
71175;DHT22;58876;51.994;4.472;2023-09-12T09:14:02;25.66;69.58
71175;DHT22;58876;51.994;4.472;2023-09-12T09:16:28;25.61;70.37
71175;DHT22;58876;51.994;4.472;2023-09-12T09:19:01;25.41;69.75
71175;DHT22;58876;51.994;4.472;2023-09-12T09:21:29;25.61;70.84
71175;DHT22;58876;51.994;4.472;2023-09-12T09:23:59;26.12;69.82
71175;DHT22;58876;51.994;4.472;2023-09-12T09:26:25;26.52;69.29
71175;DHT22;58876;51.994;4.472;2023-09-12T09:29:06;26.39;68.15
71175;DHT22;58876;51.994;4.472;2023-09-12T09:31:32;26.22;68.34
71175;DHT22;58876;51.994;4.472;2023-09-12T09:33:59;26.25;68.69
71175;DHT22;58876;51.994;4.472;2023-09-12T09:36:27;26.31;69.17
71175;DHT22;58876;51.994;4.472;2023-09-12T09:39:02;26.24;68.76
71175;DHT22;58876;51.994;4.472;2023-09-12T09:41:30;26.15;68.87
71175;DHT22;58876;51.994;4.472;2023-09-12T09:43:56;26.24;68.64
71175;DHT22;58876;51.994;4.472;2023-09-12T09:46:21;26.14;68.13
71175;DHT22;58876;51.994;4.472;2023-09-12T09:48:50;26.24;69.52
71175;DHT22;58876;51.994;4.472;2023-09-12T09:51:17;26.25;68.60
71175;DHT22;58876;51.994;4.472;2023-09-12T09:53:42;26.31;68.35
71175;DHT22;58876;51.994;4.472;2023-09-12T09:56:12;25.81;68.46
71175;DHT22;58876;51.994;4.472;2023-09-12T09:58:55;25.92;70.19
71175;DHT22;58876;51.994;4.472;2023-09-12T10:01:22;26.04;69.70
71175;DHT22;58876;51.994;4.472;2023-09-12T10:03:52;26.72;68.13
71175;DHT22;58876;51.994;4.472;2023-09-12T10:06:19;26.84;68.40
71175;DHT22;58876;51.994;4.472;2023-09-12T10:08:49;26.60;67.52
71175;DHT22;58876;51.994;4.472;2023-09-12T10:11:17;26.95;66.26
71175;DHT22;58876;51.994;4.472;2023-09-12T10:13:49;27.54;66.07
71175;DHT22;58876;51.994;4.472;2023-09-12T10:16:23;27.38;64.54
71175;DHT22;58876;51.994;4.472;2023-09-12T10:18:59;27.48;66.30
71175;DHT22;58876;51.994;4.472;2023-09-12T10:21:30;27.14;65.39
71175;DHT22;58876;51.994;4.472;2023-09-12T10:23:58;26.50;66.74
71175;DHT22;58876;51.994;4.472;2023-09-12T10:26:24;26.45;67.36
71175;DHT22;58876;51.994;4.472;2023-09-12T10:28:50;26.24;67.47
71175;DHT22;58876;51.994;4.472;2023-09-12T10:31:17;25.89;67.52
71175;DHT22;58876;51.994;4.472;2023-09-12T10:33:43;26.01;68.27
71175;DHT22;58876;51.994;4.472;2023-09-12T10:36:12;26.02;67.93
71175;DHT22;58876;51.994;4.472;2023-09-12T10:38:42;25.51;68.25
71175;DHT22;58876;51.994;4.472;2023-09-12T10:41:13;25.44;69.69
71175;DHT22;58876;51.994;4.472;2023-09-12T10:43:41;25.29;69.68
71175;DHT22;58876;51.994;4.472;2023-09-12T10:46:08;25.58;69.05
71175;DHT22;58876;51.994;4.472;2023-09-12T10:48:37;25.91;68.70
71175;DHT22;58876;51.994;4.472;2023-09-12T10:51:07;25.71;68.14
71175;DHT22;58876;51.994;4.472;2023-09-12T10:53:35;25.57;69.96
71175;DHT22;58876;51.994;4.472;2023-09-12T10:56:20;24.96;69.66
71175;DHT22;58876;51.994;4.472;2023-09-12T11:01:34;25.08;70.47
71175;DHT22;58876;51.994;4.472;2023-09-12T11:06:44;25.13;69.67
71175;DHT22;58876;51.994;4.472;2023-09-12T11:09:23;25.12;70.33
71175;DHT22;58876;51.994;4.472;2023-09-12T11:12:04;24.79;72.44
71175;DHT22;58876;51.994;4.472;2023-09-12T11:14:30;24.90;71.92
71175;DHT22;58876;51.994;4.472;2023-09-12T11:19:44;24.72;70.74
71175;DHT22;58876;51.994;4.472;2023-09-12T11:22:23;24.83;70.19
71175;DHT22;58876;51.994;4.472;2023-09-12T11:24:49;24.90;71.80
71175;DHT22;58876;51.994;4.472;2023-09-12T11:27:15;24.72;74.56
71175;DHT22;58876;51.994;4.472;2023-09-12T11:29:41;24.40;73.82
71175;DHT22;58876;51.994;4.472;2023-09-12T11:32:07;23.90;75.17
71175;DHT22;58876;51.994;4.472;2023-09-12T11:34:43;23.63;78.13
71175;DHT22;58876;51.994;4.472;2023-09-12T11:37:10;23.49;77.88
71175;DHT22;58876;51.994;4.472;2023-09-12T11:39:47;23.58;78.35
71175;DHT22;58876;51.994;4.472;2023-09-12T11:42:14;23.76;78.48
71175;DHT22;58876;51.994;4.472;2023-09-12T11:44:40;23.93;78.22
71175;DHT22;58876;51.994;4.472;2023-09-12T11:47:08;24.13;77.98
71175;DHT22;58876;51.994;4.472;2023-09-12T11:49:37;24.20;77.05
71175;DHT22;58876;51.994;4.472;2023-09-12T11:52:03;24.27;75.80
71175;DHT22;58876;51.994;4.472;2023-09-12T11:54:35;24.42;76.52
71175;DHT22;58876;51.994;4.472;2023-09-12T11:57:02;24.62;76.34
71175;DHT22;58876;51.994;4.472;2023-09-12T11:59:31;24.73;75.29
71175;DHT22;58876;51.994;4.472;2023-09-12T12:01:57;24.76;74.37
71175;DHT22;58876;51.994;4.472;2023-09-12T12:04:24;24.90;74.05
71175;DHT22;58876;51.994;4.472;2023-09-12T12:06:52;25.03;75.08
71175;DHT22;58876;51.994;4.472;2023-09-12T12:09:18;25.10;75.08
71175;DHT22;58876;51.994;4.472;2023-09-12T12:11:47;25.09;74.29
71175;DHT22;58876;51.994;4.472;2023-09-12T12:14:15;24.98;73.82
71175;DHT22;58876;51.994;4.472;2023-09-12T12:16:42;25.03;74.45
71175;DHT22;58876;51.994;4.472;2023-09-12T12:19:09;25.19;74.92
71175;DHT22;58876;51.994;4.472;2023-09-12T12:21:37;25.20;73.37
71175;DHT22;58876;51.994;4.472;2023-09-12T12:24:03;25.20;72.87
71175;DHT22;58876;51.994;4.472;2023-09-12T12:26:33;25.17;73.08
71175;DHT22;58876;51.994;4.472;2023-09-12T12:29:00;25.33;72.73
71175;DHT22;58876;51.994;4.472;2023-09-12T12:31:26;25.43;72.28
71175;DHT22;58876;51.994;4.472;2023-09-12T12:33:56;25.57;72.66
71175;DHT22;58876;51.994;4.472;2023-09-12T12:36:23;25.71;72.30
71175;DHT22;58876;51.994;4.472;2023-09-12T12:38:50;25.91;72.31
71175;DHT22;58876;51.994;4.472;2023-09-12T12:41:17;26.11;72.37
71175;DHT22;58876;51.994;4.472;2023-09-12T12:43:50;26.21;71.17
71175;DHT22;58876;51.994;4.472;2023-09-12T12:46:17;26.22;72.16
71175;DHT22;58876;51.994;4.472;2023-09-12T12:48:45;26.21;72.12
71175;DHT22;58876;51.994;4.472;2023-09-12T12:51:19;26.28;71.99
71175;DHT22;58876;51.994;4.472;2023-09-12T12:53:55;26.32;73.39
71175;DHT22;58876;51.994;4.472;2023-09-12T12:56:27;26.19;73.39
71175;DHT22;58876;51.994;4.472;2023-09-12T12:58:58;26.15;73.53
71175;DHT22;58876;51.994;4.472;2023-09-12T13:01:24;26.19;73.26
71175;DHT22;58876;51.994;4.472;2023-09-12T13:03:50;25.98;70.45
71175;DHT22;58876;51.994;4.472;2023-09-12T13:06:17;25.68;73.06
71175;DHT22;58876;51.994;4.472;2023-09-12T13:08:44;25.54;72.97
71175;DHT22;58876;51.994;4.472;2023-09-12T13:11:12;25.58;74.21
71175;DHT22;58876;51.994;4.472;2023-09-12T13:13:39;25.68;74.93
71175;DHT22;58876;51.994;4.472;2023-09-12T13:16:06;25.64;74.45
71175;DHT22;58876;51.994;4.472;2023-09-12T13:18:35;25.66;75.03
71175;DHT22;58876;51.994;4.472;2023-09-12T13:21:01;25.71;74.72
71175;DHT22;58876;51.994;4.472;2023-09-12T13:23:28;25.53;73.99
71175;DHT22;58876;51.994;4.472;2023-09-12T13:25:54;25.12;72.57
71175;DHT22;58876;51.994;4.472;2023-09-12T13:28:20;24.73;73.57
71175;DHT22;58876;51.994;4.472;2023-09-12T13:30:46;24.76;74.63
71175;DHT22;58876;51.994;4.472;2023-09-12T13:33:12;24.79;74.39
71175;DHT22;58876;51.994;4.472;2023-09-12T13:35:41;24.88;74.37
71175;DHT22;58876;51.994;4.472;2023-09-12T13:38:06;24.85;73.48
71175;DHT22;58876;51.994;4.472;2023-09-12T13:40:41;25.12;74.02
71175;DHT22;58876;51.994;4.472;2023-09-12T13:43:07;25.17;72.22
71175;DHT22;58876;51.994;4.472;2023-09-12T13:45:34;24.99;72.14
71175;DHT22;58876;51.994;4.472;2023-09-12T13:48:00;24.93;73.09
71175;DHT22;58876;51.994;4.472;2023-09-12T13:50:27;24.95;72.86
71175;DHT22;58876;51.994;4.472;2023-09-12T13:52:57;24.75;71.71
71175;DHT22;58876;51.994;4.472;2023-09-12T13:55:22;24.62;72.71
71175;DHT22;58876;51.994;4.472;2023-09-12T13:57:48;24.35;71.43
71175;DHT22;58876;51.994;4.472;2023-09-12T14:00:14;23.74;74.13
71175;DHT22;58876;51.994;4.472;2023-09-12T14:02:39;23.22;76.82
71175;DHT22;58876;51.994;4.472;2023-09-12T14:05:05;23.04;78.47
71175;DHT22;58876;51.994;4.472;2023-09-12T14:07:30;22.95;79.75
71175;DHT22;58876;51.994;4.472;2023-09-12T14:09:56;22.73;80.41
71175;DHT22;58876;51.994;4.472;2023-09-12T14:12:25;22.78;81.22
71175;DHT22;58876;51.994;4.472;2023-09-12T14:14:51;22.80;81.50
71175;DHT22;58876;51.994;4.472;2023-09-12T14:17:17;22.77;81.44
71175;DHT22;58876;51.994;4.472;2023-09-12T14:19:43;22.77;81.95
71175;DHT22;58876;51.994;4.472;2023-09-12T14:22:08;22.68;81.29
71175;DHT22;58876;51.994;4.472;2023-09-12T14:24:34;22.70;81.52
71175;DHT22;58876;51.994;4.472;2023-09-12T14:26:59;22.65;81.48
71175;DHT22;58876;51.994;4.472;2023-09-12T14:29:25;22.71;81.68
71175;DHT22;58876;51.994;4.472;2023-09-12T14:31:53;22.90;81.54
71175;DHT22;58876;51.994;4.472;2023-09-12T14:34:26;23.04;80.96
71175;DHT22;58876;51.994;4.472;2023-09-12T14:36:56;23.15;81.26
71175;DHT22;58876;51.994;4.472;2023-09-12T14:39:23;23.38;81.00
71175;DHT22;58876;51.994;4.472;2023-09-12T14:41:49;23.55;80.62
71175;DHT22;58876;51.994;4.472;2023-09-12T14:44:24;23.66;80.45
71175;DHT22;58876;51.994;4.472;2023-09-12T14:46:50;23.92;80.41
71175;DHT22;58876;51.994;4.472;2023-09-12T14:49:16;24.11;79.21
71175;DHT22;58876;51.994;4.472;2023-09-12T14:51:43;24.49;79.30
71175;DHT22;58876;51.994;4.472;2023-09-12T14:54:09;24.72;78.78
71175;DHT22;58876;51.994;4.472;2023-09-12T14:56:35;24.59;77.55
71175;DHT22;58876;51.994;4.472;2023-09-12T14:59:03;24.34;76.72
71175;DHT22;58876;51.994;4.472;2023-09-12T15:01:28;24.32;77.35
71175;DHT22;58876;51.994;4.472;2023-09-12T15:03:54;24.32;77.21
71175;DHT22;58876;51.994;4.472;2023-09-12T15:06:20;24.38;77.65
71175;DHT22;58876;51.994;4.472;2023-09-12T15:08:46;24.40;77.59
71175;DHT22;58876;51.994;4.472;2023-09-12T15:11:12;24.42;77.19
71175;DHT22;58876;51.994;4.472;2023-09-12T15:13:37;24.41;77.41
71175;DHT22;58876;51.994;4.472;2023-09-12T15:16:04;24.41;77.80
71175;DHT22;58876;51.994;4.472;2023-09-12T15:18:30;24.47;78.25
71175;DHT22;58876;51.994;4.472;2023-09-12T15:20:55;24.40;77.00
71175;DHT22;58876;51.994;4.472;2023-09-12T15:23:21;24.34;76.79
71175;DHT22;58876;51.994;4.472;2023-09-12T15:25:51;24.21;75.71
71175;DHT22;58876;51.994;4.472;2023-09-12T15:28:17;24.30;76.47
71175;DHT22;58876;51.994;4.472;2023-09-12T15:30:43;24.30;76.27
71175;DHT22;58876;51.994;4.472;2023-09-12T15:33:09;24.31;76.32
71175;DHT22;58876;51.994;4.472;2023-09-12T15:35:34;24.38;77.19
71175;DHT22;58876;51.994;4.472;2023-09-12T15:38:00;24.54;77.97
71175;DHT22;58876;51.994;4.472;2023-09-12T15:40:27;24.51;76.69